Time;durP1;ratioP1;P1;durP2;ratioP2;P2;SDS_P1;SDS_P2;PMS_P1;PMS_P2;Temp;Humidity;BMP_temperature;BMP_pressure;BME280_temperature;BME280_humidity;BME280_pressure;Samples;Min_cycle;Max_cycle;Signal;HPM_P1;HPM_P2
2023/06/28 00:00:38;;;;;;;7.90;2.33;;;;;;;12.17;83.22;99654.69;4225052;28;21592;-74
2023/06/28 00:03:10;;;;;;;7.90;2.30;;;;;;;12.13;83.70;99652.50;4230781;28;20227;-73
2023/06/28 00:05:37;;;;;;;8.73;2.10;;;;;;;12.17;83.29;99643.00;4226320;28;20238;-77
2023/06/28 00:08:04;;;;;;;5.37;2.03;;;;;;;12.26;82.96;99655.50;4218076;28;20230;-74
2023/06/28 00:10:31;;;;;;;7.20;2.03;;;;;;;12.18;83.00;99653.66;4220026;28;21254;-74
2023/06/28 00:12:57;;;;;;;9.87;1.87;;;;;;;12.09;83.91;99651.19;4231076;28;20286;-75
2023/06/28 00:15:24;;;;;;;5.13;2.30;;;;;;;12.01;83.93;99644.78;4235378;28;20895;-74
2023/06/28 00:17:50;;;;;;;7.97;2.30;;;;;;;12.02;83.92;99662.75;4216602;28;20363;-75
2023/06/28 00:20:17;;;;;;;6.80;2.13;;;;;;;11.91;84.50;99660.38;4238550;28;22816;-74
2023/06/28 00:22:44;;;;;;;5.57;2.10;;;;;;;12.00;83.95;99658.53;4229161;28;21766;-75
2023/06/28 00:25:10;;;;;;;7.70;2.03;;;;;;;11.90;84.09;99666.81;4223815;28;20809;-75
2023/06/28 00:27:37;;;;;;;12.00;2.33;;;;;;;11.80;84.65;99658.88;4232705;28;20231;-75
2023/06/28 00:30:05;;;;;;;5.80;1.80;;;;;;;11.71;84.75;99654.50;4241065;28;20230;-76
2023/06/28 00:32:31;;;;;;;5.60;2.30;;;;;;;11.81;84.08;99667.88;4221780;28;20230;-73
2023/06/28 00:34:58;;;;;;;5.20;2.20;;;;;;;11.79;84.21;99665.31;4227409;28;22302;-75
2023/06/28 00:37:25;;;;;;;7.63;2.93;;;;;;;11.74;84.60;99676.69;4231151;28;21643;-74
2023/06/28 00:39:52;;;;;;;10.10;2.80;;;;;;;11.73;84.56;99674.16;4225369;28;20457;-74
2023/06/28 00:42:18;;;;;;;11.97;2.90;;;;;;;11.65;85.15;99666.03;4231786;28;20239;-73
2023/06/28 00:44:45;;;;;;;7.90;2.70;;;;;;;11.63;85.08;99665.38;4218039;28;20238;-76
2023/06/28 00:47:12;;;;;;;9.20;2.13;;;;;;;11.60;84.82;99666.56;4238163;28;22998;-73
2023/06/28 00:49:39;;;;;;;8.17;2.50;;;;;;;11.52;85.58;99664.72;4223473;28;20879;-75
2023/06/28 00:52:07;;;;;;;3.97;2.33;;;;;;;11.54;85.84;99662.69;4208944;28;21783;-74
2023/06/28 00:54:34;;;;;;;5.37;2.30;;;;;;;11.50;85.55;99664.03;4227280;28;20228;-74
2023/06/28 00:57:01;;;;;;;8.20;2.37;;;;;;;11.50;85.70;99676.75;4218417;28;20263;-74
2023/06/28 00:59:27;;;;;;;5.17;2.43;;;;;;;11.43;85.82;99662.22;4227015;28;25196;-76
2023/06/28 01:01:54;;;;;;;11.10;2.37;;;;;;;11.43;85.99;99673.06;4228732;28;21900;-75
2023/06/28 01:04:21;;;;;;;5.00;2.70;;;;;;;11.50;85.50;99666.75;4225335;28;21123;-74
2023/06/28 01:06:51;;;;;;;6.60;2.60;;;;;;;11.39;86.17;99667.97;4236912;28;20254;-75
2023/06/28 01:09:20;;;;;;;7.83;3.00;;;;;;;11.30;86.66;99666.28;4232362;28;22587;-75
2023/06/28 01:11:51;;;;;;;10.00;3.20;;;;;;;11.30;87.20;99670.84;4229750;28;21788;-74
2023/06/28 01:14:19;;;;;;;7.70;3.23;;;;;;;11.34;87.14;99664.06;4226228;28;20231;-73
2023/06/28 01:16:54;;;;;;;4.50;2.93;;;;;;;11.31;87.35;99659.84;4235831;28;20235;-74
2023/06/28 01:19:25;;;;;;;8.10;3.70;;;;;;;11.24;87.74;99664.25;4201723;28;20295;-68
2023/06/28 01:22:00;;;;;;;8.40;3.53;;;;;;;11.20;88.30;99662.91;4228682;28;20224;-67
2023/06/28 01:24:27;;;;;;;8.83;3.87;;;;;;;11.16;88.48;99654.28;4241927;28;20222;-67
2023/06/28 01:26:54;;;;;;;11.93;3.80;;;;;;;11.12;88.66;99655.63;4243614;28;20597;-68
2023/06/28 01:29:24;;;;;;;7.77;3.43;;;;;;;11.16;88.72;99662.41;4237217;28;20231;-67
2023/06/28 01:31:52;;;;;;;10.67;4.00;;;;;;;11.17;89.10;99661.41;4225202;28;20424;-68
2023/06/28 01:34:19;;;;;;;9.30;4.17;;;;;;;11.14;89.18;99656.31;4246282;28;20280;-66
2023/06/28 01:36:47;;;;;;;7.27;3.80;;;;;;;11.13;89.48;99653.78;4231417;28;20230;-71
2023/06/28 01:39:14;;;;;;;7.87;3.87;;;;;;;11.07;89.66;99656.13;4224365;28;20238;-66
2023/06/28 01:41:42;;;;;;;10.23;4.03;;;;;;;11.06;90.10;99646.34;4237754;28;20240;-66
2023/06/28 01:44:08;;;;;;;8.93;3.80;;;;;;;11.10;90.31;99649.56;4228474;28;20930;-67
2023/06/28 01:46:36;;;;;;;8.30;4.20;;;;;;;11.07;90.07;99653.41;4235115;28;20234;-67
2023/06/28 01:49:02;;;;;;;10.37;4.07;;;;;;;11.04;90.23;99650.22;4231444;28;20282;-67
2023/06/28 01:51:29;;;;;;;7.93;3.97;;;;;;;11.12;90.22;99652.91;4232303;28;20406;-66
2023/06/28 01:53:56;;;;;;;11.63;3.80;;;;;;;11.08;90.08;99655.13;4235266;28;22052;-65
2023/06/28 01:56:22;;;;;;;11.03;4.23;;;;;;;11.01;90.47;99653.28;4227437;28;20242;-65
2023/06/28 01:58:49;;;;;;;13.07;4.47;;;;;;;11.01;90.63;99650.56;4239486;28;20289;-66
2023/06/28 02:01:15;;;;;;;7.93;3.57;;;;;;;11.04;90.33;99648.38;4239788;28;22701;-69
2023/06/28 02:03:42;;;;;;;9.93;4.17;;;;;;;11.02;90.47;99644.97;4227889;28;20382;-66
2023/06/28 02:06:10;;;;;;;8.77;4.63;;;;;;;11.04;90.47;99655.63;4208952;28;20238;-67
2023/06/28 02:08:36;;;;;;;12.63;4.50;;;;;;;10.98;90.71;99640.94;4231151;28;20685;-65
2023/06/28 02:11:03;;;;;;;10.03;4.50;;;;;;;10.99;90.79;99649.88;4229387;28;20282;-66
2023/06/28 02:13:30;;;;;;;9.63;4.43;;;;;;;11.00;90.49;99648.88;4232398;28;20571;-68
2023/06/28 02:15:56;;;;;;;7.77;4.40;;;;;;;10.99;90.43;99639.88;4229326;28;20318;-66
2023/06/28 02:18:24;;;;;;;14.40;4.60;;;;;;;10.98;90.50;99648.19;4237957;28;20239;-66
2023/06/28 02:20:51;;;;;;;13.27;4.40;;;;;;;10.99;90.74;99649.88;4235370;28;20227;-68
2023/06/28 02:23:18;;;;;;;6.50;4.20;;;;;;;10.97;90.56;99652.78;4229972;28;20234;-70
2023/06/28 02:25:45;;;;;;;7.80;3.53;;;;;;;10.98;90.54;99640.94;4239854;28;20286;-67
2023/06/28 02:28:12;;;;;;;7.57;3.93;;;;;;;10.97;90.64;99646.50;4237350;28;20285;-68
2023/06/28 02:30:39;;;;;;;7.43;4.20;;;;;;;10.96;90.69;99647.50;4230091;28;20239;-66
2023/06/28 02:33:06;;;;;;;6.30;3.90;;;;;;;10.99;90.68;99645.31;4231166;28;20240;-67
2023/06/28 02:35:33;;;;;;;10.83;4.27;;;;;;;11.02;90.49;99644.13;4239438;28;21731;-66
2023/06/28 02:37:59;;;;;;;5.67;4.10;;;;;;;11.04;90.30;99642.09;4245372;28;20242;-67
2023/06/28 02:40:26;;;;;;;9.93;4.17;;;;;;;10.97;90.48;99631.09;4252298;28;20226;-66
2023/06/28 02:42:53;;;;;;;8.90;4.13;;;;;;;10.98;90.56;99637.34;4242010;28;24838;-65
2023/06/28 02:45:20;;;;;;;9.73;4.20;;;;;;;10.97;90.51;99638.38;4262161;28;20320;-69
2023/06/28 02:47:47;;;;;;;6.47;3.87;;;;;;;10.94;90.45;99651.25;4268065;28;22652;-68
2023/06/28 02:50:14;;;;;;;8.30;4.17;;;;;;;10.95;90.93;99643.97;4270564;28;20234;-67
2023/06/28 02:52:40;;;;;;;8.33;4.50;;;;;;;10.96;90.55;99645.66;4245395;28;21260;-69
2023/06/28 02:55:07;;;;;;;11.93;4.37;;;;;;;10.97;90.37;99643.78;4263073;28;21598;-73
2023/06/28 02:57:34;;;;;;;8.80;3.80;;;;;;;10.92;90.74;99649.69;4246292;28;20239;-74
2023/06/28 03:00:01;;;;;;;12.97;4.17;;;;;;;10.95;90.80;99646.66;4247851;28;20235;-74
2023/06/28 03:02:28;;;;;;;7.10;4.53;;;;;;;10.93;90.67;99656.81;4259986;28;21788;-72
2023/06/28 03:04:55;;;;;;;8.77;4.10;;;;;;;10.88;91.08;99660.03;4238662;28;20231;-72
2023/06/28 03:07:21;;;;;;;7.10;3.90;;;;;;;10.88;91.19;99654.59;4250427;28;21193;-75
2023/06/28 03:09:48;;;;;;;10.23;4.53;;;;;;;10.89;91.50;99652.75;4242613;28;20245;-73
2023/06/28 03:12:16;;;;;;;6.50;4.33;;;;;;;10.98;91.11;99645.47;4247510;28;21322;-73
2023/06/28 03:14:43;;;;;;;10.67;4.30;;;;;;;10.95;91.06;99643.97;4246308;28;20230;-76
2023/06/28 03:17:10;;;;;;;9.63;4.80;;;;;;;10.96;91.01;99644.78;4235983;28;22378;-77
2023/06/28 03:19:37;;;;;;;10.77;4.67;;;;;;;10.96;91.35;99637.53;4240698;28;20245;-72
2023/06/28 03:22:04;;;;;;;11.00;4.53;;;;;;;11.01;91.04;99640.56;4238179;28;20441;-72
2023/06/28 03:24:31;;;;;;;9.33;4.60;;;;;;;11.09;90.97;99639.72;4249581;28;20278;-72
2023/06/28 03:26:58;;;;;;;11.97;5.17;;;;;;;11.09;90.90;99637.03;4233236;28;21069;-75
2023/06/28 03:29:24;;;;;;;13.77;4.57;;;;;;;11.12;91.09;99635.84;4245721;28;23645;-73
2023/06/28 03:31:51;;;;;;;9.10;4.37;;;;;;;11.13;91.23;99630.22;4251566;28;20232;-74
2023/06/28 03:34:18;;;;;;;11.23;4.77;;;;;;;11.17;91.30;99637.03;4243379;28;20243;-74
2023/06/28 03:36:45;;;;;;;10.43;5.17;;;;;;;11.24;90.93;99631.75;4250329;28;20243;-73
2023/06/28 03:39:29;;;;;;;13.13;5.07;;;;;;;11.29;90.85;99632.06;4249271;28;20537;-76
2023/06/28 03:41:56;;;;;;;7.23;5.03;;;;;;;11.31;90.72;99623.78;4244001;28;20853;-73
2023/06/28 03:44:22;;;;;;;15.20;5.50;;;;;;;11.34;90.80;99626.13;4244923;28;20835;-74
2023/06/28 03:46:49;;;;;;;8.23;4.73;;;;;;;11.45;90.62;99635.75;4246312;28;22431;-72
2023/06/28 03:49:16;;;;;;;11.33;4.67;;;;;;;11.50;89.77;99639.66;4237814;28;20236;-73
2023/06/28 03:51:43;;;;;;;8.10;5.30;;;;;;;11.51;89.86;99630.50;4248268;28;20239;-74
2023/06/28 03:54:10;;;;;;;11.27;5.40;;;;;;;11.60;89.78;99642.16;4241818;28;20281;-72
2023/06/28 03:56:37;;;;;;;10.33;4.47;;;;;;;11.67;89.69;99640.44;4232995;28;26336;-76
2023/06/28 03:59:04;;;;;;;9.57;4.73;;;;;;;11.74;89.44;99635.19;4239244;28;20413;-73
2023/06/28 04:01:30;;;;;;;10.67;4.77;;;;;;;11.85;88.76;99645.66;4233156;28;22230;-73
2023/06/28 04:03:57;;;;;;;6.00;4.50;;;;;;;11.93;88.74;99643.94;4230912;28;20644;-73
2023/06/28 04:06:24;;;;;;;10.43;4.80;;;;;;;11.84;88.64;99651.25;4250970;28;20309;-74
2023/06/28 04:08:51;;;;;;;7.00;4.33;;;;;;;11.99;88.54;99643.25;4232934;28;22175;-72
2023/06/28 04:11:17;;;;;;;9.13;4.50;;;;;;;12.07;88.29;99645.06;4242921;28;21488;-75
2023/06/28 04:13:44;;;;;;;9.20;3.83;;;;;;;12.17;87.78;99643.00;4242524;28;20636;-73
2023/06/28 04:16:10;;;;;;;9.30;4.30;;;;;;;12.17;87.90;99651.13;4222058;28;20237;-75
2023/06/28 04:18:37;;;;;;;8.43;4.40;;;;;;;12.29;86.80;99644.28;4231220;28;20336;-74
2023/06/28 04:21:04;;;;;;;12.13;4.87;;;;;;;12.38;86.36;99649.66;4231660;28;21801;-74
2023/06/28 04:23:30;;;;;;;6.90;4.10;;;;;;;12.42;86.01;99646.41;4234757;28;20272;-73
2023/06/28 04:25:57;;;;;;;9.27;4.13;;;;;;;12.46;86.34;99653.16;4218485;28;20315;-74
2023/06/28 04:28:25;;;;;;;10.23;3.87;;;;;;;12.45;86.32;99646.06;4247080;28;20360;-73
2023/06/28 04:30:52;;;;;;;7.10;4.07;;;;;;;12.61;85.83;99639.69;4244676;28;20738;-73
2023/06/28 04:33:22;;;;;;;7.83;4.17;;;;;;;12.80;84.74;99649.22;4236448;28;21674;-76
2023/06/28 04:35:49;;;;;;;7.17;3.73;;;;;;;12.90;84.46;99653.56;4218942;28;20613;-73
2023/06/28 04:38:20;;;;;;;9.30;3.70;;;;;;;12.94;83.96;99654.88;4243039;28;21135;-76
2023/06/28 04:40:47;;;;;;;6.67;3.70;;;;;;;12.94;84.24;99661.16;4243223;28;20773;-73
2023/06/28 04:43:14;;;;;;;11.67;3.87;;;;;;;13.02;83.90;99656.69;4243752;28;20235;-73
2023/06/28 04:45:41;;;;;;;4.93;3.27;;;;;;;13.03;83.35;99651.06;4228814;28;20421;-73
2023/06/28 04:48:08;;;;;;;6.27;3.37;;;;;;;13.02;82.99;99665.69;4229936;28;20232;-75
2023/06/28 04:50:37;;;;;;;7.77;3.37;;;;;;;13.13;82.75;99664.41;4241214;28;20444;-73
2023/06/28 04:53:07;;;;;;;11.77;3.50;;;;;;;13.25;82.71;99659.38;4228676;28;20273;-76
2023/06/28 04:55:34;;;;;;;6.57;3.63;;;;;;;13.18;82.42;99663.84;4231954;28;21279;-76
2023/06/28 04:58:03;;;;;;;7.60;3.60;;;;;;;13.39;82.31;99657.75;4225708;28;20231;-72
2023/06/28 05:00:30;;;;;;;9.77;3.50;;;;;;;13.42;81.94;99658.22;4241189;28;20312;-74
2023/06/28 05:02:57;;;;;;;9.93;3.43;;;;;;;13.57;80.75;99660.09;4234578;28;22380;-75
2023/06/28 05:05:24;;;;;;;7.77;3.50;;;;;;;13.61;81.08;99655.97;4243121;28;20637;-73
2023/06/28 05:07:55;;;;;;;8.90;3.17;;;;;;;13.89;79.96;99656.16;4236840;28;20234;-72
2023/06/28 05:10:23;;;;;;;9.33;3.40;;;;;;;13.81;79.93;99655.44;4236667;28;20323;-71
2023/06/28 05:12:51;;;;;;;5.60;3.10;;;;;;;13.91;80.04;99654.13;4235572;28;20416;-71
2023/06/28 05:15:19;;;;;;;8.87;3.10;;;;;;;14.35;77.82;99657.78;4232259;28;21646;-71
2023/06/28 05:17:46;;;;;;;6.73;3.17;;;;;;;14.29;77.58;99655.84;4234716;28;21125;-71
2023/06/28 05:20:12;;;;;;;10.40;2.90;;;;;;;14.32;78.25;99660.91;4224917;28;21292;-69
2023/06/28 05:23:07;;;;;;;7.67;3.23;;;;;;;14.27;77.87;99657.94;4230062;28;20233;-71
2023/06/28 05:25:37;;;;;;;12.53;2.87;;;;;;;14.16;78.04;99658.41;4250688;28;20264;-72
2023/06/28 05:28:04;;;;;;;5.10;2.90;;;;;;;14.19;78.33;99655.31;4225954;28;20241;-74
2023/06/28 05:30:31;;;;;;;4.67;2.53;;;;;;;14.42;77.08;99652.44;4238001;28;20870;-72
2023/06/28 05:33:01;;;;;;;6.93;2.70;;;;;;;14.84;75.61;99648.06;4242312;28;20594;-71
2023/06/28 05:35:34;;;;;;;7.10;2.83;;;;;;;14.88;75.69;99641.22;4244086;28;20234;-73
2023/06/28 05:38:05;;;;;;;7.27;2.40;;;;;;;15.21;73.59;99645.25;4285996;28;20387;-72
2023/06/28 05:40:32;;;;;;;8.50;2.47;;;;;;;15.77;72.85;99644.38;4254688;28;21720;-73
2023/06/28 05:42:59;;;;;;;7.27;2.50;;;;;;;16.34;70.67;99637.94;4254856;28;20699;-70
2023/06/28 05:45:26;;;;;;;5.03;2.37;;;;;;;16.34;69.96;99641.53;4249403;28;21514;-71
2023/06/28 05:47:53;;;;;;;4.63;2.20;;;;;;;16.96;67.40;99636.00;4242862;28;20267;-72
2023/06/28 05:50:23;;;;;;;6.17;2.10;;;;;;;17.31;66.34;99633.06;4239824;28;21376;-71
2023/06/28 05:52:50;;;;;;;7.07;2.63;;;;;;;17.38;65.21;99628.44;4252467;28;20521;-71
2023/06/28 05:55:17;;;;;;;4.93;2.03;;;;;;;17.24;65.59;99634.97;4237718;28;20413;-73
2023/06/28 05:57:46;;;;;;;6.33;2.00;;;;;;;17.04;65.83;99629.50;4225189;28;20407;-71
2023/06/28 06:00:13;;;;;;;5.23;1.90;;;;;;;17.35;65.20;99630.75;4235108;28;22310;-70
2023/06/28 06:02:40;;;;;;;4.33;1.93;;;;;;;17.74;63.92;99629.84;4245066;28;21644;-69
2023/06/28 06:05:08;;;;;;;4.27;1.90;;;;;;;17.73;63.66;99630.88;4240763;28;20941;-68
2023/06/28 06:07:39;;;;;;;4.43;1.67;;;;;;;18.13;62.29;99621.72;4253843;28;20235;-70
2023/06/28 06:10:09;;;;;;;6.97;2.00;;;;;;;18.56;61.24;99630.38;4253343;28;20302;-65
2023/06/28 06:12:37;;;;;;;7.67;1.77;;;;;;;18.60;60.89;99629.72;4210223;28;22125;-70
2023/06/28 06:15:05;;;;;;;3.20;1.50;;;;;;;18.63;60.68;99633.91;4240716;28;22586;-67
2023/06/28 06:17:32;;;;;;;4.87;1.80;;;;;;;18.91;59.78;99625.31;4246175;28;20238;-68
2023/06/28 06:20:00;;;;;;;11.47;2.40;;;;;;;19.44;58.40;99624.03;4231167;28;20235;-66
2023/06/28 06:22:27;;;;;;;7.90;2.33;;;;;;;20.04;57.77;99629.97;4240411;28;20236;-67
2023/06/28 06:24:53;;;;;;;7.15;1.92;;;;;;;20.36;56.07;99624.28;4233673;28;20408;-68
2023/06/28 06:27:20;;;;;;;5.97;1.70;;;;;;;19.61;56.29;99626.19;4229416;28;20592;-68
2023/06/28 06:29:47;;;;;;;6.13;1.70;;;;;;;18.91;59.59;99614.34;4244818;28;20230;-66
2023/06/28 06:32:14;;;;;;;8.10;1.87;;;;;;;19.18;58.45;99616.06;4239698;28;20666;-74
2023/06/28 06:34:40;;;;;;;2.87;1.57;;;;;;;18.49;61.25;99613.97;4243137;28;20297;-76
2023/06/28 06:37:11;;;;;;;7.40;2.00;;;;;;;18.67;59.96;99616.81;4225886;28;20235;-74
2023/06/28 06:39:39;;;;;;;10.07;1.70;;;;;;;19.44;57.48;99612.22;4244325;28;23396;-72
2023/06/28 06:42:06;;;;;;;6.67;1.83;;;;;;;20.07;56.36;99613.03;4249991;28;20230;-72
2023/06/28 06:44:33;;;;;;;8.60;2.07;;;;;;;18.34;60.51;99615.09;4228680;28;20238;-73
2023/06/28 06:46:59;;;;;;;3.93;1.80;;;;;;;18.64;60.41;99611.75;4230172;28;20325;-70
2023/06/28 06:49:26;;;;;;;4.87;1.73;;;;;;;20.62;55.21;99617.56;4231208;28;20352;-70
2023/06/28 06:51:53;;;;;;;6.63;2.03;;;;;;;;;;4219947;28;20232;-73
2023/06/28 06:54:20;;;;;;;5.43;1.73;;;;;;;21.10;53.11;99610.31;4243238;28;20425;-75
2023/06/28 06:56:47;;;;;;;10.13;1.60;;;;;;;21.73;51.85;99615.38;4229931;28;20227;-73
2023/06/28 06:59:16;;;;;;;5.93;1.70;;;;;;;19.89;55.86;99620.22;4256411;28;25803;-75
2023/06/28 07:01:43;;;;;;;9.63;1.97;;;;;;;20.68;53.73;99626.78;4232239;28;20234;-74
2023/06/28 07:04:11;;;;;;;5.83;1.60;;;;;;;21.36;52.03;99610.91;4238571;28;23064;-75
2023/06/28 07:06:37;;;;;;;6.57;2.00;;;;;;;21.71;52.15;99621.13;4239911;28;20436;-75
2023/06/28 07:09:04;;;;;;;5.63;1.97;;;;;;;20.96;53.74;99608.84;4243518;28;20236;-70
2023/06/28 07:11:30;;;;;;;10.10;2.53;;;;;;;21.04;53.53;99613.97;4257893;28;20239;-74
2023/06/28 07:13:57;;;;;;;5.57;1.77;;;;;;;21.88;51.54;99612.94;4233333;28;21183;-74
2023/06/28 07:16:25;;;;;;;10.07;1.87;;;;;;;21.65;52.38;99622.06;4227872;28;25018;-73
2023/06/28 07:18:54;;;;;;;7.10;1.80;;;;;;;22.53;50.02;99618.41;4224316;28;20270;-73
2023/06/28 07:21:21;;;;;;;4.27;1.50;;;;;;;22.70;48.06;99610.16;4240037;28;20585;-74
2023/06/28 07:23:48;;;;;;;4.53;1.67;;;;;;;22.10;49.42;99612.28;4224463;28;20235;-60
2023/06/28 07:26:14;;;;;;;5.70;1.63;;;;;;;21.48;52.10;99611.78;4218451;28;22147;-71
2023/06/28 07:28:41;;;;;;;3.07;1.40;;;;;;;21.27;52.63;99615.94;4239939;28;23771;-69
2023/06/28 07:31:08;;;;;;;4.53;1.80;;;;;;;21.48;52.10;99611.78;4228677;28;23027;-72
2023/06/28 07:33:35;;;;;;;5.50;1.43;;;;;;;21.58;51.31;99624.97;4231214;28;20281;-72
2023/06/28 07:36:02;;;;;;;4.27;1.77;;;;;;;21.16;52.63;99614.84;4231257;28;20230;-72
2023/06/28 07:38:29;;;;;;;9.30;1.90;;;;;;;21.09;52.34;99616.03;4214208;28;20241;-69
2023/06/28 07:40:55;;;;;;;6.00;1.50;;;;;;;20.87;51.77;99603.69;4233679;28;20777;-77
2023/06/28 07:43:22;;;;;;;4.50;1.77;;;;;;;20.84;53.25;99606.06;4236875;28;20301;-75
2023/06/28 07:45:49;;;;;;;6.03;1.97;;;;;;;20.98;52.65;99595.69;4241986;28;21917;-73
2023/06/28 07:48:15;;;;;;;8.07;1.80;;;;;;;21.16;52.87;99598.34;4247297;28;20427;-72
2023/06/28 07:50:44;;;;;;;10.43;1.93;;;;;;;21.32;52.59;99602.28;4253737;28;20736;-68
2023/06/28 07:53:10;;;;;;;7.83;1.93;;;;;;;20.68;54.44;99607.53;4222034;28;20323;-67
2023/06/28 07:55:37;;;;;;;6.00;1.57;;;;;;;20.32;55.54;99612.91;4229637;28;20235;-71
2023/06/28 07:58:04;;;;;;;7.30;1.70;;;;;;;20.73;54.97;99621.47;4238741;28;20354;-71
2023/06/28 08:00:31;;;;;;;5.87;1.90;;;;;;;21.17;53.39;99605.53;4225702;28;20965;-71
2023/06/28 08:02:58;;;;;;;4.03;1.80;;;;;;;20.74;54.44;99606.63;4228525;28;20291;-70
2023/06/28 08:05:25;;;;;;;10.17;2.23;;;;;;;20.95;53.58;99597.00;4234950;28;20226;-71
2023/06/28 08:07:55;;;;;;;6.77;1.67;;;;;;;20.52;53.87;99604.38;4238232;28;20234;-70
2023/06/28 08:10:27;;;;;;;6.67;1.70;;;;;;;20.55;53.70;99597.56;4221515;28;20232;-73
2023/06/28 08:12:55;;;;;;;6.80;1.60;;;;;;;20.78;52.72;99596.84;4252835;28;20610;-71
2023/06/28 08:15:21;;;;;;;9.60;1.67;;;;;;;20.27;53.01;99610.03;4238947;28;23914;-71
2023/06/28 08:17:48;;;;;;;5.83;1.50;;;;;;;20.10;53.49;99610.66;4255436;28;20316;-71
2023/06/28 08:20:15;;;;;;;14.63;1.73;;;;;;;19.90;55.20;99610.88;4245359;28;20287;-72
2023/06/28 08:22:41;;;;;;;6.90;1.80;;;;;;;19.95;54.48;99608.31;4214064;28;23308;-73
2023/06/28 08:25:08;;;;;;;7.17;1.67;;;;;;;19.92;55.14;99606.00;4230581;28;20297;-73
2023/06/28 08:27:36;;;;;;;4.13;1.40;;;;;;;19.54;56.62;99606.19;4244811;28;20227;-73
2023/06/28 08:30:04;;;;;;;6.17;1.70;;;;;;;19.65;56.00;99608.19;4229035;28;20235;-73
2023/06/28 08:32:32;;;;;;;9.17;1.97;;;;;;;18.90;57.24;99600.81;4246354;28;20251;-71
2023/06/28 08:34:59;;;;;;;6.50;1.67;;;;;;;18.48;58.40;99604.91;4238912;28;22165;-72
2023/06/28 08:37:25;;;;;;;8.87;1.80;;;;;;;18.44;58.38;99600.09;4248422;28;20578;-70
2023/06/28 08:39:52;;;;;;;5.00;1.50;;;;;;;18.18;59.49;99599.16;4249847;28;20235;-69
2023/06/28 08:42:19;;;;;;;6.73;1.60;;;;;;;18.13;59.50;99596.25;4235773;28;21962;-70
2023/06/28 08:44:50;;;;;;;6.03;1.80;;;;;;;18.34;59.18;99592.34;4222027;28;20334;-70
2023/06/28 08:47:17;;;;;;;11.97;2.33;;;;;;;18.81;57.86;99587.38;4278206;28;21575;-71
2023/06/28 08:49:44;;;;;;;5.20;1.57;;;;;;;19.63;55.38;99591.13;4249142;28;20340;-71
2023/06/28 08:52:13;;;;;;;10.00;1.50;;;;;;;19.84;54.62;99597.22;4239568;28;20301;-74
2023/06/28 08:54:41;;;;;;;9.13;1.50;;;;;;;19.96;55.15;99589.91;4239634;28;20410;-74
2023/06/28 08:57:10;;;;;;;5.43;1.60;;;;;;;20.10;53.10;99572.19;4276280;28;20723;-70
2023/06/28 08:59:39;;;;;;;6.07;1.70;;;;;;;19.52;54.52;99578.13;4249531;28;20363;-75
2023/06/28 09:02:08;;;;;;;9.70;1.60;;;;;;;19.28;55.91;99589.78;4246577;28;20278;-78
2023/06/28 09:04:36;;;;;;;9.30;1.60;;;;;;;18.90;56.08;99587.09;4276561;28;20328;-71
2023/06/28 09:07:03;;;;;;;8.67;1.63;;;;;;;18.77;57.08;99585.34;4255118;28;20255;-71
2023/06/28 09:09:30;;;;;;;6.10;1.40;;;;;;;18.81;56.09;99589.28;4242387;28;20588;-70
2023/06/28 09:11:57;;;;;;;7.80;1.27;;;;;;;19.04;54.06;99587.88;4238499;28;20243;-75
2023/06/28 09:14:24;;;;;;;5.23;1.87;;;;;;;18.72;55.00;99580.50;4254377;28;20232;-70
2023/06/28 09:16:51;;;;;;;7.17;1.80;;;;;;;18.75;54.67;99569.09;4242990;28;20308;-71
2023/06/28 09:19:18;;;;;;;7.80;1.60;;;;;;;19.18;54.38;99572.97;4251925;28;20277;-70
2023/06/28 09:21:45;;;;;;;6.53;1.57;;;;;;;19.71;54.59;99571.59;4240104;28;21028;-71
2023/06/28 09:24:12;;;;;;;5.00;1.30;;;;;;;19.86;53.67;99559.41;4255042;28;20273;-69
2023/06/28 09:26:43;;;;;;;9.83;1.70;;;;;;;20.02;51.67;99563.44;4228959;28;20373;-70
2023/06/28 09:29:12;;;;;;;9.47;1.53;;;;;;;20.03;52.25;99560.44;4240555;28;20243;-69
2023/06/28 09:31:43;;;;;;;5.30;1.37;;;;;;;20.15;53.18;99567.91;4224966;28;21183;-72
2023/06/28 09:34:10;;;;;;;6.03;1.40;;;;;;;20.08;52.49;99565.25;4247770;28;20246;-69
2023/06/28 09:36:37;;;;;;;10.30;2.63;;;;;;;19.52;53.73;99575.38;4234142;28;20238;-75
2023/06/28 09:39:05;;;;;;;4.53;1.77;;;;;;;19.01;53.70;99569.97;4236083;28;20532;-70
2023/06/28 09:41:43;;;;;;;11.77;1.67;;;;;;;19.05;54.27;99575.84;4244818;28;20700;-68
2023/06/28 09:44:11;;;;;;;7.87;1.60;;;;;;;19.14;53.57;99572.59;4234757;28;22387;-73
2023/06/28 09:46:46;;;;;;;10.30;1.80;;;;;;;19.08;54.05;99562.53;4239914;28;20296;-72
2023/06/28 09:49:21;;;;;;;5.80;1.30;;;;;;;19.45;52.32;99570.81;4228789;28;20239;-71
2023/06/28 09:51:56;;;;;;;7.83;1.20;;;;;;;19.84;52.12;99569.75;4239584;28;20239;-69
2023/06/28 09:54:33;;;;;;;11.63;1.73;;;;;;;20.04;52.19;99566.78;4239401;28;20232;-70
2023/06/28 09:57:01;;;;;;;5.00;1.40;;;;;;;19.50;54.31;99575.63;4256167;28;22375;-69
2023/06/28 09:59:31;;;;;;;7.10;1.50;;;;;;;19.06;54.97;99569.31;4231465;28;20772;-70
2023/06/28 10:02:05;;;;;;;12.63;1.93;;;;;;;18.79;55.33;99570.34;4236850;28;20231;-66
2023/06/28 10:04:33;;;;;;;10.30;1.87;;;;;;;18.96;54.89;99573.38;4249835;28;21266;-67
2023/06/28 10:07:01;;;;;;;6.47;1.63;;;;;;;18.73;55.79;99576.69;4239074;28;20238;-67
2023/06/28 10:09:39;;;;;;;7.77;1.77;;;;;;;19.09;54.61;99586.16;4242471;28;20258;-68
2023/06/28 10:12:13;;;;;;;5.30;1.23;;;;;;;19.21;54.24;99571.69;4242717;28;20666;-69
2023/06/28 10:14:54;;;;;;;4.03;1.27;;;;;;;19.22;54.19;99570.63;4240485;28;20254;-66
2023/06/28 10:17:24;;;;;;;12.50;2.07;;;;;;;19.20;54.20;99568.13;4241813;28;21607;-65
2023/06/28 10:19:52;;;;;;;4.13;1.30;;;;;;;19.57;53.86;99573.66;4238294;28;20235;-64
2023/06/28 10:22:19;;;;;;;9.10;1.73;;;;;;;19.50;52.95;99570.13;4235362;28;20235;-64
2023/06/28 10:24:46;;;;;;;4.70;1.30;;;;;;;19.68;52.98;99569.31;4242004;28;23594;-65
2023/06/28 10:27:13;;;;;;;6.53;1.70;;;;;;;19.89;51.02;99579.03;4237306;28;21638;-64
2023/06/28 10:29:41;;;;;;;5.77;1.60;;;;;;;19.71;52.45;99581.72;4245384;28;20266;-65
2023/06/28 10:32:08;;;;;;;8.23;1.50;;;;;;;19.73;52.35;99574.09;4255982;28;21682;-65
2023/06/28 10:34:36;;;;;;;7.30;1.53;;;;;;;19.83;53.45;99574.38;4230939;28;20620;-65
2023/06/28 10:37:03;;;;;;;6.87;1.43;;;;;;;19.92;51.42;99574.97;4232628;28;21831;-64
2023/06/28 10:39:34;;;;;;;4.47;1.10;;;;;;;20.06;52.84;99561.88;4242440;28;20367;-65
2023/06/28 10:42:01;;;;;;;5.70;1.20;;;;;;;19.94;53.45;99567.31;4229851;28;20236;-63
2023/06/28 10:44:28;;;;;;;13.67;1.37;;;;;;;19.79;53.75;99565.78;4235619;28;20307;-64
2023/06/28 10:47:10;;;;;;;10.17;1.53;;;;;;;19.43;53.40;99574.84;4228643;28;22225;-64
2023/06/28 10:49:40;;;;;;;4.00;1.27;;;;;;;19.24;53.41;99574.81;4237352;28;20242;-65
2023/06/28 10:52:14;;;;;;;6.23;1.40;;;;;;;19.09;53.64;99564.22;4227973;28;20771;-64
2023/06/28 10:54:41;;;;;;;7.50;1.50;;;;;;;19.66;53.84;99565.09;4235299;28;20702;-62
2023/06/28 10:57:14;;;;;;;6.93;1.47;;;;;;;20.22;53.60;99569.50;4226569;28;21497;-65
2023/06/28 10:59:42;;;;;;;9.60;1.73;;;;;;;20.50;52.50;99557.06;4230183;28;21094;-64
2023/06/28 11:02:08;;;;;;;4.47;1.43;;;;;;;20.38;51.73;99570.75;4238354;28;20471;-65
2023/06/28 11:04:56;;;;;;;8.93;1.70;;;;;;;19.86;52.86;99563.00;4238105;28;20293;-66
2023/06/28 11:07:27;;;;;;;5.53;1.30;;;;;;;20.22;52.85;99568.66;4264423;28;20302;-66
2023/06/28 11:10:16;;;;;;;6.27;1.70;;;;;;;20.52;51.64;99560.38;4240623;28;22316;-64
2023/06/28 11:12:47;;;;;;;10.03;1.67;;;;;;;20.43;52.47;99565.41;4243181;28;21532;-66
2023/06/28 11:15:14;;;;;;;7.17;1.60;;;;;;;19.95;54.00;99569.00;4257606;28;21478;-66
2023/06/28 11:17:41;;;;;;;8.50;1.60;;;;;;;19.85;55.23;99575.03;4237428;28;20237;-63
2023/06/28 11:20:11;;;;;;;7.33;1.67;;;;;;;19.34;55.04;99576.22;4228072;28;20247;-64
2023/06/28 11:22:51;;;;;;;6.23;1.27;;;;;;;19.04;54.78;99583.22;4242607;28;20231;-65
2023/06/28 11:25:27;;;;;;;7.77;1.40;;;;;;;19.38;52.82;99582.91;4240160;28;20232;-64
2023/06/28 11:27:56;;;;;;;4.33;1.40;;;;;;;19.34;53.33;99589.94;4227617;28;23615;-66
2023/06/28 11:30:46;;;;;;;10.57;1.73;;;;;;;19.22;53.78;99593.41;4235002;28;20242;-64
2023/06/28 11:33:14;;;;;;;7.03;1.60;;;;;;;19.31;53.64;99594.81;4243801;28;20301;-64
2023/06/28 11:35:40;;;;;;;7.23;1.67;;;;;;;19.36;53.45;99585.88;4225728;28;21440;-63